sensor_id;sensor_type;location;lat;lon;timestamp;pressure;altitude;pressure_sealevel;temperature;humidity
16690;BME280;8458;52.220;9.884;2023-02-26T00:01:35;100739.16;;;-0.04;77.46
16690;BME280;8458;52.220;9.884;2023-02-26T00:04:05;100753.47;;;-0.02;77.71
16690;BME280;8458;52.220;9.884;2023-02-26T00:06:34;100755.88;;;0.08;77.50
16690;BME280;8458;52.220;9.884;2023-02-26T00:09:01;100755.19;;;0.06;77.49
16690;BME280;8458;52.220;9.884;2023-02-26T00:11:28;100760.13;;;-0.04;77.46
16690;BME280;8458;52.220;9.884;2023-02-26T00:13:55;100762.63;;;-0.09;78.57
16690;BME280;8458;52.220;9.884;2023-02-26T00:16:26;100768.50;;;-0.06;78.25
16690;BME280;8458;52.220;9.884;2023-02-26T00:18:53;100777.66;;;-0.13;78.51
16690;BME280;8458;52.220;9.884;2023-02-26T00:21:22;100778.41;;;-0.20;78.29
16690;BME280;8458;52.220;9.884;2023-02-26T00:23:49;100786.78;;;-0.21;79.20
16690;BME280;8458;52.220;9.884;2023-02-26T00:26:16;100791.28;;;-0.13;78.62
16690;BME280;8458;52.220;9.884;2023-02-26T00:28:43;100785.81;;;-0.13;78.47
16690;BME280;8458;52.220;9.884;2023-02-26T00:31:10;100790.72;;;-0.24;78.95
16690;BME280;8458;52.220;9.884;2023-02-26T00:33:37;100800.78;;;-0.09;79.16
16690;BME280;8458;52.220;9.884;2023-02-26T00:36:14;100808.75;;;-0.08;78.94
16690;BME280;8458;52.220;9.884;2023-02-26T00:38:53;100813.72;;;-0.11;79.75
16690;BME280;8458;52.220;9.884;2023-02-26T00:41:23;100814.59;;;-0.11;79.68
16690;BME280;8458;52.220;9.884;2023-02-26T00:43:50;100808.09;;;-0.10;80.56
16690;BME280;8458;52.220;9.884;2023-02-26T00:46:21;100809.44;;;-0.21;80.46
16690;BME280;8458;52.220;9.884;2023-02-26T00:48:54;100821.75;;;-0.25;81.24
16690;BME280;8458;52.220;9.884;2023-02-26T00:51:30;100823.56;;;-0.32;81.26
16690;BME280;8458;52.220;9.884;2023-02-26T00:54:04;100824.88;;;-0.28;82.13
16690;BME280;8458;52.220;9.884;2023-02-26T00:56:34;100828.06;;;-0.39;82.60
16690;BME280;8458;52.220;9.884;2023-02-26T00:59:01;100829.94;;;-0.25;82.54
16690;BME280;8458;52.220;9.884;2023-02-26T01:01:29;100834.38;;;-0.39;83.70
16690;BME280;8458;52.220;9.884;2023-02-26T01:03:56;100838.69;;;-0.44;84.20
16690;BME280;8458;52.220;9.884;2023-02-26T01:06:25;100839.72;;;-0.45;84.11
16690;BME280;8458;52.220;9.884;2023-02-26T01:08:56;100840.84;;;-0.25;83.72
16690;BME280;8458;52.220;9.884;2023-02-26T01:11:26;100842.06;;;-0.27;83.82
16690;BME280;8458;52.220;9.884;2023-02-26T01:13:53;100838.69;;;-0.29;83.31
16690;BME280;8458;52.220;9.884;2023-02-26T01:16:23;100837.81;;;-0.30;83.73
16690;BME280;8458;52.220;9.884;2023-02-26T01:18:55;100842.63;;;-0.17;84.08
16690;BME280;8458;52.220;9.884;2023-02-26T01:21:28;100840.28;;;-0.20;84.27
16690;BME280;8458;52.220;9.884;2023-02-26T01:23:57;100843.91;;;-0.13;83.65
16690;BME280;8458;52.220;9.884;2023-02-26T01:26:28;100841.38;;;-0.14;83.75
16690;BME280;8458;52.220;9.884;2023-02-26T01:28:55;100840.34;;;-0.13;83.92
16690;BME280;8458;52.220;9.884;2023-02-26T01:31:34;100848.91;;;-0.16;84.29
16690;BME280;8458;52.220;9.884;2023-02-26T01:34:05;100836.78;;;-0.14;84.52
16690;BME280;8458;52.220;9.884;2023-02-26T01:36:40;100847.38;;;-0.04;84.17
16690;BME280;8458;52.220;9.884;2023-02-26T01:39:14;100847.38;;;-0.04;84.56
16690;BME280;8458;52.220;9.884;2023-02-26T01:41:50;100857.91;;;-0.01;84.79
16690;BME280;8458;52.220;9.884;2023-02-26T01:44:23;100855.81;;;0.01;84.81
16690;BME280;8458;52.220;9.884;2023-02-26T01:47:02;100858.03;;;0.12;84.66
16690;BME280;8458;52.220;9.884;2023-02-26T01:49:30;100864.06;;;0.23;84.44
16690;BME280;8458;52.220;9.884;2023-02-26T01:51:58;100867.09;;;0.13;84.39
16690;BME280;8458;52.220;9.884;2023-02-26T01:54:28;100875.97;;;0.00;84.17
16690;BME280;8458;52.220;9.884;2023-02-26T01:57:00;100875.47;;;0.11;84.12
16690;BME280;8458;52.220;9.884;2023-02-26T01:59:29;100878.19;;;0.11;83.91
16690;BME280;8458;52.220;9.884;2023-02-26T02:01:56;100881.75;;;0.27;84.09
16690;BME280;8458;52.220;9.884;2023-02-26T02:04:24;100885.50;;;0.26;83.78
16690;BME280;8458;52.220;9.884;2023-02-26T02:06:52;100888.97;;;0.20;84.02
16690;BME280;8458;52.220;9.884;2023-02-26T02:09:19;100888.97;;;0.20;84.28
16690;BME280;8458;52.220;9.884;2023-02-26T02:11:57;100903.69;;;0.04;84.93
16690;BME280;8458;52.220;9.884;2023-02-26T02:14:30;100895.06;;;0.00;85.12
16690;BME280;8458;52.220;9.884;2023-02-26T02:17:08;100902.44;;;0.06;85.69
16690;BME280;8458;52.220;9.884;2023-02-26T02:23:07;100906.94;;;0.29;85.54
16690;BME280;8458;52.220;9.884;2023-02-26T02:28:44;100913.41;;;0.28;84.87
16690;BME280;8458;52.220;9.884;2023-02-26T02:31:21;100915.75;;;0.31;84.97
16690;BME280;8458;52.220;9.884;2023-02-26T02:33:55;100920.13;;;0.10;85.17
16690;BME280;8458;52.220;9.884;2023-02-26T02:36:27;100918.53;;;0.16;85.06
16690;BME280;8458;52.220;9.884;2023-02-26T02:39:01;100923.50;;;0.12;84.98
16690;BME280;8458;52.220;9.884;2023-02-26T02:41:33;100928.97;;;0.12;85.25
16690;BME280;8458;52.220;9.884;2023-02-26T02:44:04;100934.00;;;-0.06;86.72
16690;BME280;8458;52.220;9.884;2023-02-26T02:46:37;100937.66;;;-0.14;86.68
16690;BME280;8458;52.220;9.884;2023-02-26T02:49:07;100933.31;;;-0.08;87.04
16690;BME280;8458;52.220;9.884;2023-02-26T02:51:40;100937.34;;;-0.19;87.35
16690;BME280;8458;52.220;9.884;2023-02-26T02:54:11;100943.56;;;-0.10;87.72
16690;BME280;8458;52.220;9.884;2023-02-26T02:56:43;100954.94;;;-0.22;87.86
16690;BME280;8458;52.220;9.884;2023-02-26T02:59:15;100953.34;;;-0.16;88.39
16690;BME280;8458;52.220;9.884;2023-02-26T03:01:48;100945.28;;;-0.09;88.22
16690;BME280;8458;52.220;9.884;2023-02-26T03:04:16;100954.38;;;-0.02;87.51
16690;BME280;8458;52.220;9.884;2023-02-26T03:06:43;100950.25;;;0.02;87.24
16690;BME280;8458;52.220;9.884;2023-02-26T03:09:11;100956.81;;;-0.07;87.87
16690;BME280;8458;52.220;9.884;2023-02-26T03:11:38;100960.56;;;-0.08;88.03
16690;BME280;8458;52.220;9.884;2023-02-26T03:14:05;100963.78;;;-0.05;88.19
16690;BME280;8458;52.220;9.884;2023-02-26T03:16:55;100956.91;;;-0.01;87.69
16690;BME280;8458;52.220;9.884;2023-02-26T03:19:30;100964.53;;;0.04;87.89
16690;BME280;8458;52.220;9.884;2023-02-26T03:22:03;100968.19;;;-0.04;87.78
16690;BME280;8458;52.220;9.884;2023-02-26T03:24:35;100969.59;;;0.07;87.71
16690;BME280;8458;52.220;9.884;2023-02-26T03:27:08;100980.13;;;0.10;87.54
16690;BME280;8458;52.220;9.884;2023-02-26T03:29:39;100978.72;;;-0.01;87.24
16690;BME280;8458;52.220;9.884;2023-02-26T03:32:13;100982.00;;;-0.05;87.60
16690;BME280;8458;52.220;9.884;2023-02-26T03:34:46;100978.16;;;-0.11;87.27
16690;BME280;8458;52.220;9.884;2023-02-26T03:37:19;100979.84;;;-0.25;88.20
16690;BME280;8458;52.220;9.884;2023-02-26T03:39:49;100993.09;;;-0.22;88.65
16690;BME280;8458;52.220;9.884;2023-02-26T03:42:21;100992.53;;;-0.32;88.82
16690;BME280;8458;52.220;9.884;2023-02-26T03:44:52;100996.25;;;-0.33;89.12
16690;BME280;8458;52.220;9.884;2023-02-26T03:47:22;100996.44;;;-0.34;89.29
16690;BME280;8458;52.220;9.884;2023-02-26T03:49:53;100998.75;;;-0.23;89.51
16690;BME280;8458;52.220;9.884;2023-02-26T03:52:22;101006.19;;;-0.17;89.17
16690;BME280;8458;52.220;9.884;2023-02-26T03:54:54;101010.47;;;-0.23;89.20
16690;BME280;8458;52.220;9.884;2023-02-26T03:57:23;101011.59;;;-0.32;89.11
16690;BME280;8458;52.220;9.884;2023-02-26T03:59:49;101006.34;;;-0.33;89.65
16690;BME280;8458;52.220;9.884;2023-02-26T04:02:17;101014.69;;;-0.35;89.77
16690;BME280;8458;52.220;9.884;2023-02-26T04:04:49;101009.69;;;-0.46;90.30
16690;BME280;8458;52.220;9.884;2023-02-26T04:07:18;101016.25;;;-0.41;90.43
16690;BME280;8458;52.220;9.884;2023-02-26T04:09:48;101024.25;;;-0.39;90.66
16690;BME280;8458;52.220;9.884;2023-02-26T04:12:20;101019.91;;;-0.48;90.57
16690;BME280;8458;52.220;9.884;2023-02-26T04:14:47;101033.13;;;-0.37;91.21
16690;BME280;8458;52.220;9.884;2023-02-26T04:17:14;101039.66;;;-0.46;90.72
16690;BME280;8458;52.220;9.884;2023-02-26T04:19:41;101039.94;;;-0.41;90.80
16690;BME280;8458;52.220;9.884;2023-02-26T04:22:08;101040.59;;;-0.39;90.75
16690;BME280;8458;52.220;9.884;2023-02-26T04:24:35;101052.25;;;-0.45;90.76
16690;BME280;8458;52.220;9.884;2023-02-26T04:27:02;101051.22;;;-0.44;90.69
16690;BME280;8458;52.220;9.884;2023-02-26T04:29:28;101048.59;;;-0.38;90.50
16690;BME280;8458;52.220;9.884;2023-02-26T04:31:55;101060.72;;;-0.40;90.54
16690;BME280;8458;52.220;9.884;2023-02-26T04:34:24;101054.19;;;-0.31;90.65
16690;BME280;8458;52.220;9.884;2023-02-26T04:36:50;101065.09;;;-0.31;89.65
16690;BME280;8458;52.220;9.884;2023-02-26T04:39:18;101073.44;;;-0.32;89.33
16690;BME280;8458;52.220;9.884;2023-02-26T04:41:45;101077.66;;;-0.30;89.20
16690;BME280;8458;52.220;9.884;2023-02-26T04:44:11;101075.25;;;-0.25;89.06
16690;BME280;8458;52.220;9.884;2023-02-26T04:46:38;101076.19;;;-0.17;88.44
16690;BME280;8458;52.220;9.884;2023-02-26T04:49:04;101080.69;;;-0.25;88.57
16690;BME280;8458;52.220;9.884;2023-02-26T04:51:31;101078.91;;;-0.17;88.73
16690;BME280;8458;52.220;9.884;2023-02-26T04:53:57;101090.25;;;-0.29;88.16
16690;BME280;8458;52.220;9.884;2023-02-26T04:56:25;101079.00;;;-0.26;86.98
16690;BME280;8458;52.220;9.884;2023-02-26T04:58:52;101091.25;;;-0.22;87.55
16690;BME280;8458;52.220;9.884;2023-02-26T05:01:19;101090.50;;;-0.15;87.37
16690;BME280;8458;52.220;9.884;2023-02-26T05:03:45;101094.38;;;-0.33;87.23
16690;BME280;8458;52.220;9.884;2023-02-26T05:06:11;101094.88;;;-0.29;87.40
16690;BME280;8458;52.220;9.884;2023-02-26T05:08:38;101092.72;;;-0.34;87.58
16690;BME280;8458;52.220;9.884;2023-02-26T05:11:07;101099.00;;;-0.33;88.27
16690;BME280;8458;52.220;9.884;2023-02-26T05:13:35;101095.09;;;-0.39;87.24
16690;BME280;8458;52.220;9.884;2023-02-26T05:16:01;101101.66;;;-0.48;87.32
16690;BME280;8458;52.220;9.884;2023-02-26T05:18:28;101107.44;;;-0.43;87.24
16690;BME280;8458;52.220;9.884;2023-02-26T05:20:55;101105.81;;;-0.38;87.00
16690;BME280;8458;52.220;9.884;2023-02-26T05:23:22;101119.97;;;-0.34;86.82
16690;BME280;8458;52.220;9.884;2023-02-26T05:25:49;101122.34;;;-0.39;86.54
16690;BME280;8458;52.220;9.884;2023-02-26T05:28:15;101125.41;;;-0.34;86.74
16690;BME280;8458;52.220;9.884;2023-02-26T05:30:43;101131.22;;;-0.37;86.42
16690;BME280;8458;52.220;9.884;2023-02-26T05:33:10;101133.41;;;-0.32;86.05
16690;BME280;8458;52.220;9.884;2023-02-26T05:35:36;101137.94;;;-0.25;85.77
16690;BME280;8458;52.220;9.884;2023-02-26T05:38:03;101135.22;;;-0.25;85.79
16690;BME280;8458;52.220;9.884;2023-02-26T05:40:29;101140.31;;;-0.22;85.54
16690;BME280;8458;52.220;9.884;2023-02-26T05:42:56;101140.13;;;-0.20;84.80
16690;BME280;8458;52.220;9.884;2023-02-26T05:45:22;101146.47;;;-0.28;84.94
16690;BME280;8458;52.220;9.884;2023-02-26T05:47:50;101154.69;;;-0.13;85.24
16690;BME280;8458;52.220;9.884;2023-02-26T05:50:17;101160.22;;;-0.21;84.21
16690;BME280;8458;52.220;9.884;2023-02-26T05:52:44;101166.94;;;-0.32;84.28
16690;BME280;8458;52.220;9.884;2023-02-26T05:55:10;101174.09;;;-0.31;84.24
16690;BME280;8458;52.220;9.884;2023-02-26T05:57:37;101166.31;;;-0.42;84.36
16690;BME280;8458;52.220;9.884;2023-02-26T06:00:05;101180.31;;;-0.45;84.79
16690;BME280;8458;52.220;9.884;2023-02-26T06:02:32;101183.09;;;-0.53;85.22
16690;BME280;8458;52.220;9.884;2023-02-26T06:05:00;101192.34;;;-0.63;84.96
16690;BME280;8458;52.220;9.884;2023-02-26T06:07:27;101192.25;;;-0.46;84.35
16690;BME280;8458;52.220;9.884;2023-02-26T06:09:53;101197.44;;;-0.60;84.42
16690;BME280;8458;52.220;9.884;2023-02-26T06:12:19;101199.63;;;-0.55;84.32
16690;BME280;8458;52.220;9.884;2023-02-26T06:14:46;101204.31;;;-0.72;84.79
16690;BME280;8458;52.220;9.884;2023-02-26T06:17:12;101210.78;;;-0.73;85.04
16690;BME280;8458;52.220;9.884;2023-02-26T06:19:39;101219.28;;;-0.76;85.71
16690;BME280;8458;52.220;9.884;2023-02-26T06:22:06;101220.53;;;-0.79;85.27
16690;BME280;8458;52.220;9.884;2023-02-26T06:24:33;101217.16;;;-0.89;85.40
16690;BME280;8458;52.220;9.884;2023-02-26T06:26:59;101226.44;;;-0.75;85.04
16690;BME280;8458;52.220;9.884;2023-02-26T06:29:26;101230.91;;;-0.82;85.02
16690;BME280;8458;52.220;9.884;2023-02-26T06:31:52;101247.28;;;-0.91;85.18
16690;BME280;8458;52.220;9.884;2023-02-26T06:34:19;101242.50;;;-0.88;85.51
16690;BME280;8458;52.220;9.884;2023-02-26T06:36:46;101241.78;;;-0.82;85.19
16690;BME280;8458;52.220;9.884;2023-02-26T06:39:14;101246.19;;;-0.73;84.63
16690;BME280;8458;52.220;9.884;2023-02-26T06:41:41;101252.69;;;-0.82;85.09
16690;BME280;8458;52.220;9.884;2023-02-26T06:44:08;101242.44;;;-0.72;84.42
16690;BME280;8458;52.220;9.884;2023-02-26T06:46:35;101256.09;;;-0.80;84.05
16690;BME280;8458;52.220;9.884;2023-02-26T06:49:02;101253.03;;;-0.85;84.28
16690;BME280;8458;52.220;9.884;2023-02-26T06:51:28;101270.25;;;-0.85;84.70
16690;BME280;8458;52.220;9.884;2023-02-26T06:53:55;101262.88;;;-0.76;83.83
16690;BME280;8458;52.220;9.884;2023-02-26T06:56:23;101268.72;;;-0.87;84.11
16690;BME280;8458;52.220;9.884;2023-02-26T06:58:50;101273.94;;;-0.69;83.63
16690;BME280;8458;52.220;9.884;2023-02-26T07:01:16;101268.66;;;-0.79;83.26
16690;BME280;8458;52.220;9.884;2023-02-26T07:03:43;101279.25;;;-0.84;83.49
16690;BME280;8458;52.220;9.884;2023-02-26T07:06:10;101277.88;;;-0.88;83.39
16690;BME280;8458;52.220;9.884;2023-02-26T07:08:38;101293.88;;;-0.77;83.65
16690;BME280;8458;52.220;9.884;2023-02-26T07:11:05;101290.63;;;-0.73;83.40
16690;BME280;8458;52.220;9.884;2023-02-26T07:13:34;101305.78;;;-0.78;82.77
16690;BME280;8458;52.220;9.884;2023-02-26T07:16:01;101304.06;;;-0.71;82.91
16690;BME280;8458;52.220;9.884;2023-02-26T07:18:28;101309.19;;;-0.76;82.87
16690;BME280;8458;52.220;9.884;2023-02-26T07:20:54;101313.09;;;-0.70;83.31
16690;BME280;8458;52.220;9.884;2023-02-26T07:23:21;101325.03;;;-0.80;82.52
16690;BME280;8458;52.220;9.884;2023-02-26T07:25:48;101323.44;;;-0.66;82.58
16690;BME280;8458;52.220;9.884;2023-02-26T07:28:14;101329.56;;;-0.64;82.38
16690;BME280;8458;52.220;9.884;2023-02-26T07:30:42;101333.88;;;-0.69;82.31
16690;BME280;8458;52.220;9.884;2023-02-26T07:33:09;101339.13;;;-0.68;82.28
16690;BME280;8458;52.220;9.884;2023-02-26T07:35:35;101343.72;;;-0.60;82.39
16690;BME280;8458;52.220;9.884;2023-02-26T07:38:01;101344.41;;;-0.66;82.46
16690;BME280;8458;52.220;9.884;2023-02-26T07:40:28;101346.59;;;-0.62;82.98
16690;BME280;8458;52.220;9.884;2023-02-26T07:42:55;101349.47;;;-0.55;82.96
16690;BME280;8458;52.220;9.884;2023-02-26T07:45:22;101361.19;;;-0.46;82.60
16690;BME280;8458;52.220;9.884;2023-02-26T07:47:50;101362.88;;;-0.45;81.36
16690;BME280;8458;52.220;9.884;2023-02-26T07:50:18;101368.28;;;-0.29;81.22
16690;BME280;8458;52.220;9.884;2023-02-26T07:52:45;101377.47;;;-0.30;80.52
16690;BME280;8458;52.220;9.884;2023-02-26T07:55:12;101377.28;;;-0.20;81.17
16690;BME280;8458;52.220;9.884;2023-02-26T07:57:39;101383.59;;;-0.20;80.17
16690;BME280;8458;52.220;9.884;2023-02-26T08:00:06;101372.63;;;-0.11;80.41
16690;BME280;8458;52.220;9.884;2023-02-26T08:02:33;101380.50;;;-0.16;79.49
16690;BME280;8458;52.220;9.884;2023-02-26T08:05:01;101384.06;;;-0.16;79.11
16690;BME280;8458;52.220;9.884;2023-02-26T08:07:27;101394.13;;;-0.16;78.66
16690;BME280;8458;52.220;9.884;2023-02-26T08:09:53;101392.59;;;-0.11;79.37
16690;BME280;8458;52.220;9.884;2023-02-26T08:12:20;101399.38;;;-0.07;79.09
16690;BME280;8458;52.220;9.884;2023-02-26T08:14:46;101399.59;;;-0.16;78.90
16690;BME280;8458;52.220;9.884;2023-02-26T08:17:13;101405.75;;;-0.23;79.53
16690;BME280;8458;52.220;9.884;2023-02-26T08:19:40;101400.94;;;-0.12;79.13
16690;BME280;8458;52.220;9.884;2023-02-26T08:22:08;101408.44;;;-0.14;79.27
16690;BME280;8458;52.220;9.884;2023-02-26T08:24:34;101413.53;;;-0.11;79.68
16690;BME280;8458;52.220;9.884;2023-02-26T08:27:01;101413.72;;;-0.13;79.42
16690;BME280;8458;52.220;9.884;2023-02-26T08:29:27;101414.03;;;-0.08;79.21
16690;BME280;8458;52.220;9.884;2023-02-26T08:31:54;101426.09;;;-0.02;79.79
16690;BME280;8458;52.220;9.884;2023-02-26T08:34:21;101422.31;;;0.07;79.88
16690;BME280;8458;52.220;9.884;2023-02-26T08:36:47;101425.00;;;0.15;79.41
16690;BME280;8458;52.220;9.884;2023-02-26T08:39:16;101429.25;;;0.18;79.53
16690;BME280;8458;52.220;9.884;2023-02-26T08:41:42;101439.31;;;0.17;79.77
16690;BME280;8458;52.220;9.884;2023-02-26T08:44:09;101444.69;;;0.34;79.82
16690;BME280;8458;52.220;9.884;2023-02-26T08:46:35;101452.56;;;0.29;78.39
16690;BME280;8458;52.220;9.884;2023-02-26T08:49:02;101453.91;;;0.33;77.17
16690;BME280;8458;52.220;9.884;2023-02-26T08:51:28;101465.50;;;0.35;77.10
16690;BME280;8458;52.220;9.884;2023-02-26T08:53:54;101460.34;;;0.40;76.79
16690;BME280;8458;52.220;9.884;2023-02-26T08:56:22;101465.31;;;0.37;76.37
16690;BME280;8458;52.220;9.884;2023-02-26T08:58:49;101463.03;;;0.48;76.69
16690;BME280;8458;52.220;9.884;2023-02-26T09:01:16;101467.25;;;0.59;76.19
16690;BME280;8458;52.220;9.884;2023-02-26T09:03:42;101468.75;;;0.62;75.62
16690;BME280;8458;52.220;9.884;2023-02-26T09:06:09;101477.28;;;0.59;75.34
16690;BME280;8458;52.220;9.884;2023-02-26T09:08:35;101481.19;;;0.64;75.74
16690;BME280;8458;52.220;9.884;2023-02-26T09:11:02;101476.53;;;0.73;75.87
16690;BME280;8458;52.220;9.884;2023-02-26T09:13:31;101487.69;;;0.86;75.05
16690;BME280;8458;52.220;9.884;2023-02-26T09:15:57;101495.97;;;1.01;75.06
16690;BME280;8458;52.220;9.884;2023-02-26T09:18:24;101496.78;;;1.10;74.98
16690;BME280;8458;52.220;9.884;2023-02-26T09:20:50;101500.41;;;1.25;74.01
16690;BME280;8458;52.220;9.884;2023-02-26T09:23:17;101503.88;;;1.19;73.00
16690;BME280;8458;52.220;9.884;2023-02-26T09:25:44;101505.56;;;1.20;72.53
16690;BME280;8458;52.220;9.884;2023-02-26T09:28:10;101509.19;;;1.36;73.16
16690;BME280;8458;52.220;9.884;2023-02-26T09:30:38;101497.69;;;1.40;72.46
16690;BME280;8458;52.220;9.884;2023-02-26T09:33:05;101506.50;;;1.51;71.97
16690;BME280;8458;52.220;9.884;2023-02-26T09:35:31;101502.25;;;1.48;71.78
16690;BME280;8458;52.220;9.884;2023-02-26T09:37:58;101500.63;;;1.77;71.97
16690;BME280;8458;52.220;9.884;2023-02-26T09:40:40;101504.28;;;1.84;70.73
16690;BME280;8458;52.220;9.884;2023-02-26T09:46:14;101518.06;;;2.06;69.69
16690;BME280;8458;52.220;9.884;2023-02-26T09:48:43;101505.34;;;2.13;69.11
16690;BME280;8458;52.220;9.884;2023-02-26T09:51:17;101517.78;;;2.30;69.44
16690;BME280;8458;52.220;9.884;2023-02-26T09:53:48;101510.13;;;2.56;68.21
16690;BME280;8458;52.220;9.884;2023-02-26T09:56:16;101514.16;;;2.60;67.00
16690;BME280;8458;52.220;9.884;2023-02-26T09:58:44;101511.03;;;2.63;67.02
16690;BME280;8458;52.220;9.884;2023-02-26T10:01:16;101521.16;;;2.62;66.03
16690;BME280;8458;52.220;9.884;2023-02-26T10:03:54;101525.19;;;2.66;66.57
16690;BME280;8458;52.220;9.884;2023-02-26T10:06:24;101520.50;;;2.60;65.44
16690;BME280;8458;52.220;9.884;2023-02-26T10:09:11;101522.94;;;2.55;64.51
16690;BME280;8458;52.220;9.884;2023-02-26T10:11:48;101519.63;;;2.75;64.83
16690;BME280;8458;52.220;9.884;2023-02-26T10:14:21;101531.66;;;2.95;65.55
16690;BME280;8458;52.220;9.884;2023-02-26T10:16:52;101537.56;;;2.99;64.18
16690;BME280;8458;52.220;9.884;2023-02-26T10:19:22;101540.41;;;3.05;63.53
16690;BME280;8458;52.220;9.884;2023-02-26T10:21:54;101540.81;;;3.02;64.42
16690;BME280;8458;52.220;9.884;2023-02-26T10:24:25;101540.59;;;3.04;64.15
16690;BME280;8458;52.220;9.884;2023-02-26T10:26:55;101547.34;;;3.23;64.59
16690;BME280;8458;52.220;9.884;2023-02-26T10:29:30;101542.69;;;3.45;62.23
16690;BME280;8458;52.220;9.884;2023-02-26T10:32:11;101544.13;;;3.63;61.02
16690;BME280;8458;52.220;9.884;2023-02-26T10:34:46;101544.84;;;3.50;61.08
16690;BME280;8458;52.220;9.884;2023-02-26T10:37:18;101544.75;;;3.36;60.00
16690;BME280;8458;52.220;9.884;2023-02-26T10:39:49;101552.38;;;3.19;61.98
16690;BME280;8458;52.220;9.884;2023-02-26T10:42:20;101552.81;;;3.45;62.39
16690;BME280;8458;52.220;9.884;2023-02-26T10:44:56;101548.69;;;3.55;61.35
16690;BME280;8458;52.220;9.884;2023-02-26T10:47:36;101547.53;;;3.65;59.21
16690;BME280;8458;52.220;9.884;2023-02-26T10:50:08;101547.59;;;3.50;56.53
16690;BME280;8458;52.220;9.884;2023-02-26T10:52:36;101554.13;;;3.70;57.62
16690;BME280;8458;52.220;9.884;2023-02-26T10:55:12;101557.75;;;3.77;58.54
16690;BME280;8458;52.220;9.884;2023-02-26T10:57:46;101566.25;;;3.83;58.84
16690;BME280;8458;52.220;9.884;2023-02-26T11:00:17;101560.44;;;3.99;58.93
16690;BME280;8458;52.220;9.884;2023-02-26T11:02:48;101568.63;;;3.92;57.52
16690;BME280;8458;52.220;9.884;2023-02-26T11:05:18;101578.50;;;3.87;57.97
16690;BME280;8458;52.220;9.884;2023-02-26T11:07:48;101567.66;;;4.00;56.21
16690;BME280;8458;52.220;9.884;2023-02-26T11:10:19;101581.34;;;4.28;55.53
16690;BME280;8458;52.220;9.884;2023-02-26T11:12:46;101583.13;;;4.43;53.34
16690;BME280;8458;52.220;9.884;2023-02-26T11:15:14;101582.19;;;4.29;51.37
16690;BME280;8458;52.220;9.884;2023-02-26T11:17:45;101581.38;;;4.35;52.82
16690;BME280;8458;52.220;9.884;2023-02-26T11:20:17;101572.34;;;4.41;52.64
16690;BME280;8458;52.220;9.884;2023-02-26T11:22:47;101579.81;;;4.54;52.24
16690;BME280;8458;52.220;9.884;2023-02-26T11:25:17;101581.16;;;4.65;50.04
16690;BME280;8458;52.220;9.884;2023-02-26T11:27:48;101586.97;;;4.48;49.30
16690;BME280;8458;52.220;9.884;2023-02-26T11:30:16;101582.78;;;4.53;49.47
16690;BME280;8458;52.220;9.884;2023-02-26T11:32:48;101581.78;;;4.32;49.10
16690;BME280;8458;52.220;9.884;2023-02-26T11:35:17;101580.16;;;4.44;49.16
16690;BME280;8458;52.220;9.884;2023-02-26T11:37:47;101582.81;;;4.66;50.03
16690;BME280;8458;52.220;9.884;2023-02-26T11:40:17;101583.31;;;4.76;49.80
16690;BME280;8458;52.220;9.884;2023-02-26T11:42:48;101576.41;;;4.94;49.13
16690;BME280;8458;52.220;9.884;2023-02-26T11:45:19;101580.91;;;5.15;49.45
16690;BME280;8458;52.220;9.884;2023-02-26T11:47:48;101575.22;;;5.16;49.48
16690;BME280;8458;52.220;9.884;2023-02-26T11:50:20;101576.38;;;4.87;49.26
16690;BME280;8458;52.220;9.884;2023-02-26T11:52:54;101579.34;;;4.92;49.38
16690;BME280;8458;52.220;9.884;2023-02-26T11:55:26;101579.13;;;4.94;48.34
16690;BME280;8458;52.220;9.884;2023-02-26T11:57:54;101580.44;;;4.98;47.85
16690;BME280;8458;52.220;9.884;2023-02-26T12:00:24;101571.16;;;5.06;47.08
16690;BME280;8458;52.220;9.884;2023-02-26T12:02:55;101579.25;;;5.20;47.28
16690;BME280;8458;52.220;9.884;2023-02-26T12:05:25;101573.75;;;5.20;47.67
16690;BME280;8458;52.220;9.884;2023-02-26T12:07:52;101573.97;;;5.26;47.41
16690;BME280;8458;52.220;9.884;2023-02-26T12:10:22;101578.22;;;5.35;46.47
16690;BME280;8458;52.220;9.884;2023-02-26T12:13:02;101575.47;;;5.42;46.29
16690;BME280;8458;52.220;9.884;2023-02-26T12:15:36;101574.63;;;5.41;45.91
16690;BME280;8458;52.220;9.884;2023-02-26T12:18:19;101572.31;;;5.65;47.08
16690;BME280;8458;52.220;9.884;2023-02-26T12:20:57;101564.94;;;5.72;46.92
16690;BME280;8458;52.220;9.884;2023-02-26T12:23:52;101565.34;;;5.89;47.70
16690;BME280;8458;52.220;9.884;2023-02-26T12:26:27;101569.84;;;5.97;47.32
16690;BME280;8458;52.220;9.884;2023-02-26T12:29:13;101567.03;;;5.63;45.48
16690;BME280;8458;52.220;9.884;2023-02-26T12:31:53;101572.94;;;5.40;46.70
16690;BME280;8458;52.220;9.884;2023-02-26T12:37:30;101574.16;;;5.17;46.41
16690;BME280;8458;52.220;9.884;2023-02-26T12:40:07;101575.41;;;5.15;45.79
16690;BME280;8458;52.220;9.884;2023-02-26T12:42:46;101577.56;;;5.33;46.04
16690;BME280;8458;52.220;9.884;2023-02-26T12:45:26;101575.47;;;5.42;46.83
16690;BME280;8458;52.220;9.884;2023-02-26T12:48:16;101574.59;;;5.28;46.85
16690;BME280;8458;52.220;9.884;2023-02-26T12:50:58;101579.06;;;5.42;47.05
16690;BME280;8458;52.220;9.884;2023-02-26T12:53:49;101580.09;;;5.34;46.30
16690;BME280;8458;52.220;9.884;2023-02-26T12:56:31;101579.72;;;5.44;46.72
16690;BME280;8458;52.220;9.884;2023-02-26T12:59:15;101569.56;;;5.51;46.83
16690;BME280;8458;52.220;9.884;2023-02-26T13:01:59;101572.75;;;5.55;46.03
16690;BME280;8458;52.220;9.884;2023-02-26T13:07:42;101585.63;;;5.54;46.33
16690;BME280;8458;52.220;9.884;2023-02-26T13:10:19;101578.00;;;5.36;44.80
16690;BME280;8458;52.220;9.884;2023-02-26T13:12:51;101571.69;;;5.49;45.32
16690;BME280;8458;52.220;9.884;2023-02-26T13:15:36;101564.50;;;5.75;46.52
16690;BME280;8458;52.220;9.884;2023-02-26T13:18:12;101569.16;;;5.88;45.82
16690;BME280;8458;52.220;9.884;2023-02-26T13:20:47;101567.06;;;6.03;45.91
16690;BME280;8458;52.220;9.884;2023-02-26T13:23:22;101570.88;;;6.02;44.86
16690;BME280;8458;52.220;9.884;2023-02-26T13:25:54;101573.84;;;6.01;44.49
16690;BME280;8458;52.220;9.884;2023-02-26T13:28:38;101571.28;;;5.99;44.36
16690;BME280;8458;52.220;9.884;2023-02-26T13:31:08;101567.47;;;6.07;44.55
16690;BME280;8458;52.220;9.884;2023-02-26T13:33:36;101570.88;;;6.09;43.87
16690;BME280;8458;52.220;9.884;2023-02-26T13:36:06;101560.47;;;6.18;44.32